createdAt,value
2019-04-05T00:03:19.908Z,62218.21
2019-04-05T00:05:46.139Z,62212.40
2019-04-05T00:08:12.384Z,62207.11
2019-04-05T00:10:38.610Z,62203.54
2019-04-05T00:13:04.855Z,62200.36
2019-04-05T00:15:31.089Z,62197.11
2019-04-05T00:17:57.456Z,62195.09
2019-04-05T00:20:23.705Z,62200.90
2019-04-05T00:22:49.947Z,62199.75
2019-04-05T00:25:16.177Z,62200.08
2019-04-05T00:27:42.424Z,62201.77
2019-04-05T00:33:22.266Z,62202.38
2019-04-05T00:35:48.509Z,62189.61
2019-04-05T00:38:14.783Z,62189.86
2019-04-05T00:40:41.018Z,62188.45
2019-04-05T00:43:07.260Z,62185.39
2019-04-05T00:45:33.493Z,62177.30
2019-04-05T00:47:59.761Z,62171.88
2019-04-05T00:50:25.985Z,62163.37
2019-04-05T00:52:52.333Z,62157.21
2019-04-05T00:55:18.565Z,62152.68
2019-04-05T00:57:44.817Z,62153.83
2019-04-05T01:03:24.478Z,62155.79
2019-04-05T01:05:50.804Z,62148.35
2019-04-05T01:10:56.642Z,62150.37
2019-04-05T01:14:04.203Z,62141.86
2019-04-05T01:16:30.448Z,62141.19
2019-04-05T01:18:56.706Z,62130.85
2019-04-05T01:27:35.676Z,62128.08
2019-04-05T01:30:13.895Z,62125.24
2019-04-05T01:32:40.132Z,62120.45
2019-04-05T01:35:06.404Z,62114.90
2019-04-05T01:37:32.632Z,62108.74
2019-04-05T01:39:59.182Z,62103.13
2019-04-05T01:42:25.726Z,62110.24
2019-04-05T01:45:33.285Z,62113.21
2019-04-05T01:47:59.517Z,62108.49
2019-04-05T01:51:07.076Z,62112.95
2019-04-05T01:53:33.321Z,62118.47
2019-04-05T01:55:59.595Z,62127.48
2019-04-05T01:58:25.831Z,62132.06
2019-04-05T02:00:52.060Z,62121.93
2019-04-05T02:03:18.335Z,62113.21
2019-04-05T02:05:44.585Z,62125.11
2019-04-05T02:08:10.830Z,62118.95
2019-04-05T02:10:37.184Z,62123.15
2019-04-05T02:16:52.092Z,62111.79
2019-04-05T02:19:18.328Z,62115.77
2019-04-05T02:21:44.631Z,62123.48
2019-04-05T02:24:10.874Z,62126.80
2019-04-05T02:26:37.119Z,62124.15
2019-04-05T02:29:03.349Z,62125.98
2019-04-05T02:31:29.594Z,62127.32
2019-04-05T02:33:55.827Z,62134.02
2019-04-05T02:36:22.075Z,62125.65
2019-04-05T02:38:48.317Z,62123.82
2019-04-05T02:41:55.881Z,62127.54
2019-04-05T02:44:22.428Z,62122.60
2019-04-05T02:50:30.598Z,62122.06
2019-04-05T02:53:38.149Z,62116.99
2019-04-05T02:56:45.703Z,62118.14
2019-04-05T03:05:26.232Z,62105.44
2019-04-05T03:07:52.484Z,62110.10
2019-04-05T03:10:58.227Z,62115.90
2019-04-05T03:14:05.788Z,62110.51
2019-04-05T03:19:54.338Z,62114.16
2019-04-05T03:23:01.915Z,62109.83
2019-04-05T03:25:28.244Z,62104.57
2019-04-05T03:27:54.519Z,62102.94
2019-04-05T03:36:22.416Z,62087.84
2019-04-05T03:38:48.641Z,62095.37
2019-04-05T03:41:36.436Z,62091.25
2019-04-05T03:44:02.884Z,62091.80
2019-04-05T03:46:29.108Z,62091.93
2019-04-05T03:48:55.353Z,62089.97
2019-04-05T03:54:35.007Z,62100.43
2019-04-05T03:57:01.250Z,62096.94
2019-04-05T03:59:27.610Z,62096.65
2019-04-05T04:01:53.851Z,62094.69
2019-04-05T04:04:20.105Z,62094.49
2019-04-05T04:06:46.345Z,62090.65
2019-04-05T04:09:12.585Z,62085.64
2019-04-05T04:11:38.838Z,62097.19
2019-04-05T04:14:46.385Z,62097.87
2019-04-05T04:22:48.553Z,62124.02
2019-04-05T04:25:14.537Z,62131.84
2019-04-05T04:27:40.768Z,62132.55
2019-04-05T04:30:48.320Z,62135.44
2019-04-05T04:36:27.675Z,62162.27
2019-04-05T04:42:07.785Z,62153.96
2019-04-05T04:44:34.216Z,62165.19
2019-04-05T04:47:00.465Z,62175.80
2019-04-05T04:49:26.842Z,62180.61
2019-04-05T04:52:34.392Z,62195.28
2019-04-05T04:55:00.643Z,62206.43
2019-04-05T04:57:26.991Z,62234.25
2019-04-05T04:59:53.449Z,62250.09
2019-04-05T05:02:19.785Z,62263.07
2019-04-05T05:04:46.250Z,62288.46
2019-04-05T05:07:12.592Z,62292.32
2019-04-05T05:09:39.138Z,62309.17
2019-04-05T05:12:46.691Z,62321.58
2019-04-05T05:18:26.180Z,62346.70
2019-04-05T05:20:52.416Z,62364.46
2019-04-05T05:23:18.728Z,62389.72
2019-04-05T05:25:46.896Z,62387.34
2019-04-05T05:30:48.164Z,62376.72
2019-04-05T05:33:14.514Z,62376.78
2019-04-05T05:35:41.052Z,62378.14
2019-04-05T05:38:07.325Z,62375.02
2019-04-05T05:40:35.129Z,62361.21
2019-04-05T05:43:01.747Z,62359.83
2019-04-05T05:45:27.996Z,62370.96
2019-04-05T05:47:54.358Z,62375.82
2019-04-05T05:50:20.593Z,62398.19
2019-04-05T05:55:40.705Z,62424.77
2019-04-05T05:58:07.917Z,62352.18
2019-04-05T06:00:34.166Z,62401.79
2019-04-05T06:03:00.454Z,62398.25
2019-04-05T06:05:26.705Z,62399.82
2019-04-05T06:07:52.953Z,62383.96
2019-04-05T06:10:19.198Z,62376.85
2019-04-05T06:12:45.445Z,62376.59
2019-04-05T06:15:11.792Z,62376.85
2019-04-05T06:17:38.027Z,62363.17
2019-04-05T06:20:25.838Z,62371.50
2019-04-05T06:22:52.103Z,62366.35
2019-04-05T06:25:18.395Z,62384.86
2019-04-05T06:27:44.620Z,62379.23
2019-04-05T06:30:10.979Z,62373.66
2019-04-05T06:32:37.204Z,62371.83
2019-04-05T06:35:23.199Z,62375.62
2019-04-05T06:37:49.449Z,62381.58
2019-04-05T06:40:15.699Z,62397.38
2019-04-05T06:42:42.043Z,62406.52
2019-04-05T06:45:08.399Z,62401.79
2019-04-05T06:47:34.662Z,62391.75
2019-04-05T06:50:00.921Z,62385.73
2019-04-05T06:52:27.168Z,62388.98
2019-04-05T06:54:53.425Z,62385.12
2019-04-05T06:57:19.706Z,62386.82
2019-04-05T06:59:45.961Z,62386.47
2019-04-05T07:02:12.202Z,62386.67
2019-04-05T07:04:38.483Z,62389.18
2019-04-05T07:07:04.748Z,62397.45
2019-04-05T07:09:33.850Z,62413.25
2019-04-05T07:14:29.180Z,62409.64
2019-04-05T07:16:55.419Z,62410.47
2019-04-05T07:19:21.666Z,62416.30
2019-04-05T07:21:47.936Z,62418.88
2019-04-05T07:24:14.183Z,62419.14
2019-04-05T07:26:40.442Z,62423.48
2019-04-05T07:29:06.673Z,62425.86
2019-04-05T07:31:32.935Z,62439.22
2019-04-05T07:33:59.173Z,62443.83
2019-04-05T07:36:25.434Z,62444.09
2019-04-05T07:38:51.732Z,62465.99
2019-04-05T07:41:18.030Z,62486.15
2019-04-05T07:43:44.561Z,62484.25
2019-04-05T07:46:10.819Z,62469.52
2019-04-05T07:48:44.619Z,62475.97
2019-04-05T07:51:05.241Z,62481.39
2019-04-05T07:53:31.476Z,62505.21
2019-04-05T07:55:57.732Z,62505.28
2019-04-05T07:58:23.977Z,62518.78
2019-04-05T08:01:31.653Z,62509.09
2019-04-05T08:03:58.302Z,62504.54
2019-04-05T08:07:07.364Z,62519.18
2019-04-05T08:13:09.183Z,62506.57
2019-04-05T08:15:35.417Z,62528.00
2019-04-05T08:18:01.781Z,62521.63
2019-04-05T08:20:28.035Z,62526.78
2019-04-05T08:22:54.289Z,62540.15
2019-04-05T08:25:20.551Z,62548.92
2019-04-05T08:27:46.910Z,62534.59
2019-04-05T08:30:13.278Z,62536.29
2019-04-05T08:32:39.515Z,62530.26
2019-04-05T08:35:05.761Z,62536.15
2019-04-05T08:37:32.014Z,62560.53
2019-04-05T08:39:58.249Z,62565.62
2019-04-05T08:42:24.494Z,62517.02
2019-04-05T08:44:50.736Z,62525.91
2019-04-05T08:47:16.987Z,62546.06
2019-04-05T08:49:43.216Z,62544.16
2019-04-05T08:52:09.452Z,62576.96
2019-04-05T08:54:36.956Z,62598.90
2019-04-05T08:57:03.972Z,62611.73
2019-04-05T08:59:30.220Z,62604.68
2019-04-05T09:01:56.465Z,62592.04
2019-04-05T09:04:22.719Z,62577.49
2019-04-05T09:06:48.964Z,62581.29
2019-04-05T09:09:15.234Z,62580.29
2019-04-05T09:11:41.460Z,62579.00
2019-04-05T09:14:07.703Z,62557.82
2019-04-05T09:16:33.946Z,62550.47
2019-04-05T09:19:00.209Z,62549.25
2019-04-05T09:21:26.470Z,62547.21
2019-04-05T09:23:52.740Z,62533.29
2019-04-05T09:26:19.016Z,62538.39
2019-04-05T09:28:45.275Z,62538.06
2019-04-05T09:31:11.509Z,62543.96
2019-04-05T09:33:37.764Z,62548.92
2019-04-05T09:36:04.000Z,62559.98
2019-04-05T09:38:30.248Z,62549.25
2019-04-05T09:40:56.488Z,62545.99
2019-04-05T09:43:22.722Z,62542.19
2019-04-05T09:45:48.968Z,62530.71
2019-04-05T09:48:15.205Z,62532.09
2019-04-05T09:50:41.470Z,62535.00
2019-04-05T09:53:07.705Z,62550.89
2019-04-05T09:55:33.964Z,62550.14
2019-04-05T09:58:00.308Z,62554.82
2019-04-05T10:03:06.132Z,62573.71
2019-04-05T10:05:32.585Z,62604.32
2019-04-05T10:07:58.824Z,62612.89
2019-04-05T10:10:25.087Z,62624.77
2019-04-05T10:12:51.308Z,62637.06
2019-04-05T10:15:17.583Z,62629.47
2019-04-05T10:17:43.803Z,62630.41
2019-04-05T10:20:51.362Z,62598.70
2019-04-05T10:23:17.595Z,62598.15
2019-04-05T10:25:44.254Z,62614.02
2019-04-05T10:28:12.068Z,62606.51
2019-04-05T10:30:38.332Z,62595.22
2019-04-05T10:33:04.581Z,62609.77
2019-04-05T10:35:30.832Z,62595.42
2019-04-05T10:37:58.437Z,62595.22
2019-04-05T10:40:25.225Z,62608.25
2019-04-05T10:42:51.461Z,62614.99
2019-04-05T10:45:18.209Z,62623.27
2019-04-05T10:50:51.839Z,62614.64
2019-04-05T10:53:18.071Z,62613.77
2019-04-05T10:55:44.314Z,62446.67
2019-04-05T10:58:10.567Z,62608.60
2019-04-05T11:03:30.374Z,62618.05
2019-04-05T11:05:56.617Z,62607.18
2019-04-05T11:08:22.868Z,62603.03
2019-04-05T11:10:49.109Z,62595.42
2019-04-05T11:13:15.358Z,62608.25
2019-04-05T11:15:41.595Z,62612.61
2019-04-05T11:18:27.598Z,62618.25
2019-04-05T11:20:53.851Z,62624.99
2019-04-05T11:26:14.142Z,62619.20
2019-04-05T11:28:40.385Z,62613.50
2019-04-05T11:31:06.650Z,62614.12
2019-04-05T11:33:32.884Z,62600.86
2019-04-05T11:35:59.220Z,62599.57
2019-04-05T11:39:07.082Z,62600.86
2019-04-05T11:47:57.751Z,62612.61
2019-04-05T11:50:34.600Z,62623.89
2019-04-05T11:52:52.678Z,62638.70
2019-04-05T11:55:18.988Z,62623.55
2019-04-05T11:57:45.283Z,62621.31
2019-04-05T12:03:38.738Z,62628.77
2019-04-05T12:06:04.999Z,62610.24
2019-04-05T12:08:31.246Z,62603.92
2019-04-05T12:10:57.490Z,62597.26
2019-04-05T12:13:23.739Z,62600.12
2019-04-05T12:15:49.976Z,62603.85
2019-04-05T12:18:19.435Z,62594.74
2019-04-05T12:20:50.942Z,62617.83
2019-04-05T12:23:12.543Z,62622.60
2019-04-05T12:25:38.806Z,62640.41
2019-04-05T12:28:06.872Z,62650.19
2019-04-05T12:30:33.234Z,62660.99
2019-04-05T12:33:12.772Z,62645.42
2019-04-05T12:35:27.663Z,62648.48
2019-04-05T12:37:55.777Z,62631.96
2019-04-05T12:40:22.074Z,62635.16
2019-04-05T12:43:08.076Z,62646.51
2019-04-05T12:45:34.325Z,62628.77
2019-04-05T12:48:00.557Z,62642.50
2019-04-05T12:50:27.002Z,62665.00
2019-04-05T12:52:54.726Z,62662.61
2019-04-05T12:55:23.838Z,62672.34
2019-04-05T12:57:49.552Z,62659.97
2019-04-05T13:00:57.106Z,62655.00
2019-04-05T13:03:23.332Z,62646.86
2019-04-05T13:05:51.575Z,62636.31
2019-04-05T13:08:17.736Z,62626.54
2019-04-05T13:10:44.021Z,62624.37
2019-04-05T13:13:10.247Z,62627.83
2019-04-05T13:15:36.494Z,62626.54
2019-04-05T13:18:02.743Z,62622.25
2019-04-05T13:20:30.442Z,62612.68
2019-04-05T13:22:57.142Z,62603.03
2019-04-05T13:25:23.392Z,62594.12
2019-04-05T13:27:49.669Z,62593.05
2019-04-05T13:30:18.382Z,62601.06
2019-04-05T13:32:44.158Z,62589.12
2019-04-05T13:35:10.804Z,62588.70
2019-04-05T13:37:37.057Z,62585.64
2019-04-05T13:40:44.602Z,62593.45
2019-04-05T13:43:10.863Z,62595.29
2019-04-05T13:45:37.102Z,62593.32
2019-04-05T13:48:03.366Z,62590.20
2019-04-05T13:50:29.606Z,62590.20
2019-04-05T13:52:55.856Z,62575.45
2019-04-05T13:55:22.097Z,62573.16
2019-04-05T13:57:48.345Z,62568.26
2019-04-05T14:00:17.452Z,62558.27
2019-04-05T14:02:42.936Z,62558.21
2019-04-05T14:08:09.772Z,62557.07
2019-04-05T14:10:29.427Z,62560.86
2019-04-05T14:12:55.680Z,62566.10
2019-04-05T14:15:21.922Z,62566.43
2019-04-05T14:17:49.356Z,62566.10
2019-04-05T14:20:19.644Z,62564.46
2019-04-05T14:25:20.988Z,62551.76
2019-04-05T14:27:47.272Z,62552.43
2019-04-05T14:30:13.891Z,62559.79
2019-04-05T14:32:40.123Z,62560.73
2019-04-05T14:35:07.920Z,62555.02
2019-04-05T14:37:34.931Z,62552.30
2019-04-05T14:40:01.186Z,62552.50
2019-04-05T14:42:29.711Z,62545.45
2019-04-05T14:44:56.052Z,62544.37
2019-04-05T14:47:22.484Z,62535.06
2019-04-05T14:49:48.747Z,62542.80
2019-04-05T14:52:15.120Z,62540.97
2019-04-05T14:54:43.252Z,62537.71
2019-04-05T14:57:09.554Z,62533.71
2019-04-05T14:59:35.816Z,62526.93
2019-04-05T15:02:02.160Z,62532.55
2019-04-05T15:04:28.415Z,62530.04
2019-04-05T15:06:54.678Z,62531.33
2019-04-05T15:09:24.854Z,62530.80
2019-04-05T15:11:49.156Z,62527.33
2019-04-05T15:14:15.411Z,62531.68
2019-04-05T15:16:41.644Z,62534.06
2019-04-05T15:19:07.928Z,62525.36
2019-04-05T15:21:34.876Z,62523.53
2019-04-05T15:24:02.445Z,62520.95
2019-04-05T15:26:28.681Z,62530.65
2019-04-05T15:28:55.737Z,62526.11
2019-04-05T15:31:25.857Z,62520.27
2019-04-05T15:33:51.238Z,62525.43
2019-04-05T15:36:17.484Z,62521.56
2019-04-05T15:38:43.734Z,62523.20
2019-04-05T15:41:09.992Z,62522.30
2019-04-05T15:43:36.528Z,62517.89
2019-04-05T15:46:02.876Z,62519.18
2019-04-05T15:48:29.113Z,62515.31
2019-04-05T15:50:57.799Z,62522.30
2019-04-05T15:56:33.260Z,62520.69
2019-04-05T15:58:59.073Z,62520.89
2019-04-05T16:01:25.320Z,62513.69
2019-04-05T16:03:51.556Z,62517.89
2019-04-05T16:06:17.812Z,62517.89
2019-04-05T16:08:44.046Z,62516.82
2019-04-05T16:11:10.301Z,62517.02
2019-04-05T16:13:36.535Z,62519.40
2019-04-05T16:16:02.898Z,62520.27
2019-04-05T16:18:29.142Z,62517.69
2019-04-05T16:20:55.416Z,62518.11
2019-04-05T16:23:21.653Z,62515.92
2019-04-05T16:25:47.966Z,62514.85
2019-04-05T16:28:14.244Z,62508.93
2019-04-05T16:30:40.524Z,62508.40
2019-04-05T16:33:06.766Z,62516.14
2019-04-05T16:35:33.010Z,62512.05
2019-04-05T16:37:59.265Z,62514.30
2019-04-05T16:40:25.508Z,62512.82
2019-04-05T16:43:01.699Z,62512.12
2019-04-05T16:45:20.329Z,62513.56
2019-04-05T16:47:46.580Z,62520.89
2019-04-05T16:50:13.129Z,62510.98
2019-04-05T16:52:45.177Z,62518.72
2019-04-05T16:55:07.656Z,62516.47
2019-04-05T16:57:33.925Z,62516.82
2019-04-05T17:00:00.161Z,62520.47
2019-04-05T17:02:26.416Z,62520.14
2019-04-05T17:04:52.658Z,62519.40
2019-04-05T17:07:18.927Z,62513.89
2019-04-05T17:09:45.152Z,62514.98
2019-04-05T17:12:11.405Z,62515.92
2019-04-05T17:14:37.656Z,62517.43
2019-04-05T17:17:03.922Z,62511.92
2019-04-05T17:20:11.482Z,62515.18
2019-04-05T17:22:37.746Z,62518.72
2019-04-05T17:25:45.303Z,62513.02
2019-04-05T17:28:11.586Z,62513.34
2019-04-05T17:30:37.821Z,62520.69
2019-04-05T17:33:04.080Z,62519.05
2019-04-05T17:35:30.325Z,62516.82
2019-04-05T17:37:56.610Z,62519.40
2019-04-05T17:40:22.843Z,62523.94
2019-04-05T17:42:49.116Z,62522.65
2019-04-05T17:45:15.361Z,62521.49
2019-04-05T17:47:41.606Z,62528.82
2019-04-05T17:50:30.345Z,62532.84
2019-04-05T17:52:56.701Z,62530.80
2019-04-05T17:55:22.937Z,62532.29
2019-04-05T17:57:49.265Z,62532.62
2019-04-05T18:02:53.042Z,62527.06
2019-04-05T18:05:19.322Z,62533.84
2019-04-05T18:07:45.555Z,62533.29
2019-04-05T18:10:11.828Z,62536.22
2019-04-05T18:12:38.060Z,62534.93
2019-04-05T18:15:04.517Z,62536.77
2019-04-05T18:17:30.763Z,62535.48
2019-04-05T18:19:57.020Z,62532.35
2019-04-05T18:22:23.250Z,62534.19
2019-04-05T18:24:49.543Z,62532.15
2019-04-05T18:27:15.736Z,62538.61
2019-04-05T18:29:42.057Z,62537.10
2019-04-05T18:32:08.294Z,62537.86
2019-04-05T18:34:34.555Z,62536.57
2019-04-05T18:37:00.810Z,62541.12
2019-04-05T18:39:27.067Z,62541.12
2019-04-05T18:41:53.333Z,62539.83
2019-04-05T18:44:19.585Z,62543.48
2019-04-05T18:46:45.843Z,62539.41
2019-04-05T18:49:12.079Z,62406.13
2019-04-05T18:51:38.380Z,62545.79
2019-04-05T18:54:04.591Z,62544.50
2019-04-05T18:56:30.841Z,62550.96
2019-04-05T18:58:57.082Z,62551.30
2019-04-05T19:01:23.327Z,62549.79
2019-04-05T19:03:49.789Z,62548.30
2019-04-05T19:06:16.073Z,62552.92
2019-04-05T19:08:42.332Z,62551.63
2019-04-05T19:11:08.590Z,62551.21
2019-04-05T19:13:34.863Z,62555.09
2019-04-05T19:16:01.083Z,62552.85
2019-04-05T19:18:27.431Z,62554.34
2019-04-05T19:20:53.698Z,62558.56
2019-04-05T19:23:19.950Z,62551.36
2019-04-05T19:25:46.656Z,62557.20
2019-04-05T19:28:12.996Z,62557.20
2019-04-05T19:50:24.875Z,62530.93
2019-04-05T19:52:51.140Z,62563.71
2019-04-05T19:55:17.401Z,62562.43
2019-04-05T19:57:43.653Z,62569.55
2019-04-05T20:03:06.715Z,62572.42
2019-04-05T20:05:32.971Z,62576.29
2019-04-05T20:07:59.215Z,62540.90
2019-04-05T20:10:25.452Z,62574.04
2019-04-05T20:12:51.743Z,62578.26
2019-04-05T20:15:17.946Z,62576.96
2019-04-05T20:17:44.200Z,62580.22
2019-04-05T20:20:31.994Z,62584.77
2019-04-05T20:22:58.242Z,62584.23
2019-04-05T20:25:24.503Z,62580.48
2019-04-05T20:27:50.774Z,62584.70
2019-04-05T20:30:17.041Z,62590.00
2019-04-05T20:32:43.305Z,62591.29
2019-04-05T20:35:09.537Z,62595.64
2019-04-05T20:37:35.786Z,62596.38
2019-04-05T20:43:15.811Z,62590.12
2019-04-05T20:45:42.044Z,62596.38
2019-04-05T20:48:08.292Z,62593.25
2019-04-05T20:50:34.534Z,62591.96
2019-04-05T20:53:00.798Z,62593.80
2019-04-05T20:55:27.041Z,62594.68
2019-04-05T20:57:53.310Z,62596.93
2019-04-05T21:00:19.546Z,62592.51
2019-04-05T21:02:45.799Z,62595.64
2019-04-05T21:05:12.063Z,62595.42
2019-04-05T21:07:38.464Z,62592.31
2019-04-05T21:10:26.297Z,62595.42
2019-04-05T21:12:52.531Z,62592.64
2019-04-05T21:15:18.775Z,62597.80
2019-04-05T21:17:45.046Z,62598.48
2019-04-05T21:20:11.506Z,62597.54
2019-04-05T21:22:37.740Z,62604.12
2019-04-05T21:25:25.911Z,62603.92
2019-04-05T21:27:52.316Z,62602.96
2019-04-05T21:30:18.571Z,62608.47
2019-04-05T21:32:44.827Z,62613.64
2019-04-05T21:35:11.074Z,62606.64
2019-04-05T21:40:37.810Z,62610.44
2019-04-05T21:43:04.447Z,62624.45
2019-04-05T21:45:30.761Z,62612.82
2019-04-05T21:47:57.084Z,62612.95
2019-04-05T21:50:23.355Z,62617.16
2019-04-05T21:52:49.597Z,62620.63
2019-04-05T21:55:15.847Z,62619.12
2019-04-05T21:57:42.084Z,62618.73
2019-04-05T22:00:49.629Z,62620.57
2019-04-05T22:03:15.884Z,62625.31
2019-04-05T22:05:42.136Z,62623.27
2019-04-05T22:08:08.373Z,62625.31
2019-04-05T22:10:34.628Z,62630.06
2019-04-05T22:13:01.475Z,62622.53
2019-04-05T22:15:27.810Z,62626.61
2019-04-05T22:17:54.432Z,62625.66
2019-04-05T22:20:20.921Z,62626.41
2019-04-05T22:22:47.162Z,62626.41
2019-04-05T22:25:13.416Z,62622.53
2019-04-05T22:27:39.664Z,62622.93
2019-04-05T22:30:47.242Z,62620.02
2019-04-05T22:33:13.491Z,62621.64
2019-04-05T22:35:39.754Z,62621.51
2019-04-05T22:38:06.037Z,62617.09
2019-04-05T22:40:32.254Z,62618.60
2019-04-05T22:42:58.504Z,62619.00
2019-04-05T22:45:24.770Z,62617.16
2019-04-05T22:47:51.029Z,62614.79
2019-04-05T22:50:17.285Z,62616.09
2019-04-05T22:52:43.516Z,62614.12
2019-04-05T22:55:11.417Z,62608.05
2019-04-05T22:57:37.929Z,62609.89
2019-04-05T23:00:45.478Z,62604.38
2019-04-05T23:03:11.708Z,62602.41
2019-04-05T23:05:37.958Z,62604.67
2019-04-05T23:08:04.215Z,62601.54
2019-04-05T23:10:30.494Z,62603.45
2019-04-05T23:12:56.757Z,62597.26
2019-04-05T23:15:22.998Z,62591.09
2019-04-05T23:17:49.247Z,62588.16
2019-04-05T23:20:15.593Z,62582.52
2019-04-05T23:22:41.840Z,62582.06
2019-04-05T23:25:08.184Z,62573.29
2019-04-05T23:27:34.437Z,62569.48
2019-04-05T23:30:22.260Z,62564.26
2019-04-05T23:32:48.518Z,62555.50
2019-04-05T23:35:14.761Z,62554.82
2019-04-05T23:37:41.024Z,62552.72
2019-04-05T23:40:07.378Z,62543.83
2019-04-05T23:42:33.640Z,62540.02
2019-04-05T23:44:59.885Z,62535.68
2019-04-05T23:47:26.138Z,62533.38
2019-04-05T23:49:52.375Z,62522.23
2019-04-05T23:52:18.624Z,62520.47
2019-04-05T23:54:44.853Z,62513.02
2019-04-05T23:57:11.124Z,62509.61
2019-04-05T23:59:37.360Z,62503.99
